createdAt,value
2017-09-08T00:00:18.012Z,6.63
2017-09-08T00:02:48.292Z,6.70
2017-09-08T00:05:18.186Z,6.40
2017-09-08T00:07:48.431Z,7.10
2017-09-08T00:10:18.354Z,7.93
2017-09-08T00:12:48.560Z,7.57
2017-09-08T00:15:18.426Z,6.80
2017-09-08T00:17:48.599Z,7.20
2017-09-08T00:20:18.513Z,7.40
2017-09-08T00:22:48.763Z,7.23
2017-09-08T00:25:18.715Z,7.30
2017-09-08T00:27:49.021Z,8.27
2017-09-08T00:30:18.934Z,7.33
2017-09-08T00:32:49.139Z,8.53
2017-09-08T00:35:19.070Z,8.30
2017-09-08T00:37:48.987Z,8.47
2017-09-08T00:40:18.990Z,7.17
2017-09-08T00:42:48.909Z,7.27
2017-09-08T00:45:19.184Z,6.87
2017-09-08T00:47:49.121Z,7.83
2017-09-08T00:50:19.041Z,6.73
2017-09-08T00:52:49.006Z,6.70
2017-09-08T00:55:18.893Z,9.23
2017-09-08T00:57:49.143Z,7.50
2017-09-08T01:00:19.148Z,9.00
2017-09-08T01:02:49.379Z,7.50
2017-09-08T01:05:19.293Z,8.30
2017-09-08T01:07:49.477Z,9.50
2017-09-08T01:10:19.354Z,9.53
2017-09-08T01:12:49.686Z,8.90
2017-09-08T01:15:19.604Z,9.23
2017-09-08T01:17:49.884Z,8.27
2017-09-08T01:20:19.807Z,8.50
2017-09-08T01:22:50.038Z,8.60
2017-09-08T01:25:19.957Z,9.00
2017-09-08T01:27:50.298Z,9.23
2017-09-08T01:30:20.231Z,9.13
2017-09-08T01:32:50.621Z,8.10
2017-09-08T01:35:20.669Z,8.80
2017-09-08T01:37:50.943Z,9.50
2017-09-08T01:40:20.892Z,9.90
2017-09-08T01:42:51.085Z,9.37
2017-09-08T01:45:20.943Z,9.30
2017-09-08T01:47:50.950Z,8.37
2017-09-08T01:50:20.935Z,9.53
2017-09-08T01:52:51.411Z,9.33
2017-09-08T01:55:23.066Z,9.27
2017-09-08T01:57:52.963Z,8.97
2017-09-08T02:00:23.337Z,8.77
2017-09-08T02:02:53.227Z,9.50
2017-09-08T02:05:23.560Z,9.37
2017-09-08T02:07:53.691Z,9.30
2017-09-08T02:10:24.328Z,9.37
2017-09-08T02:12:54.271Z,9.93
2017-09-08T02:15:24.574Z,10.07
2017-09-08T02:17:54.484Z,11.57
2017-09-08T02:20:24.665Z,9.53
2017-09-08T02:22:54.573Z,9.63
2017-09-08T02:25:24.739Z,9.27
2017-09-08T02:27:54.618Z,10.20
2017-09-08T02:30:24.979Z,10.03
2017-09-08T02:32:54.848Z,10.47
2017-09-08T02:35:25.027Z,9.17
2017-09-08T02:37:54.924Z,9.83
2017-09-08T02:40:25.131Z,10.23
2017-09-08T02:42:55.024Z,10.10
2017-09-08T02:45:24.979Z,12.10
2017-09-08T02:47:55.085Z,11.07
2017-09-08T02:50:25.255Z,9.10
2017-09-08T02:52:55.529Z,10.83
2017-09-08T02:55:25.420Z,10.10
2017-09-08T02:57:55.594Z,10.30
2017-09-08T03:00:25.482Z,12.23
2017-09-08T03:02:55.697Z,10.90
2017-09-08T03:05:25.616Z,11.57
2017-09-08T03:07:55.834Z,11.40
2017-09-08T03:10:25.729Z,11.50
2017-09-08T03:12:55.996Z,12.20
2017-09-08T03:15:25.905Z,12.10
2017-09-08T03:17:56.094Z,14.10
2017-09-08T03:20:26.024Z,12.80
2017-09-08T03:22:55.927Z,12.70
2017-09-08T03:25:25.791Z,13.67
2017-09-08T03:27:55.676Z,14.17
2017-09-08T03:30:25.963Z,12.57
2017-09-08T03:32:55.854Z,13.40
2017-09-08T03:35:26.098Z,13.73
2017-09-08T03:37:55.996Z,14.30
2017-09-08T03:40:26.439Z,13.77
2017-09-08T03:42:56.316Z,14.80
2017-09-08T03:45:26.678Z,14.07
2017-09-08T03:47:56.563Z,15.50
2017-09-08T03:50:26.803Z,14.00
2017-09-08T03:52:56.718Z,15.47
2017-09-08T03:55:26.930Z,14.47
2017-09-08T03:57:56.828Z,16.50
2017-09-08T04:00:27.074Z,14.80
2017-09-08T04:02:57.074Z,14.43
2017-09-08T04:05:27.307Z,14.10
2017-09-08T04:07:57.272Z,13.83
2017-09-08T04:10:27.447Z,13.37
2017-09-08T04:12:57.341Z,13.90
2017-09-08T04:15:27.734Z,13.80
2017-09-08T04:17:57.597Z,14.10
2017-09-08T04:20:27.822Z,14.17
2017-09-08T04:22:57.718Z,14.03
2017-09-08T04:25:28.058Z,14.80
2017-09-08T04:27:57.930Z,14.87
2017-09-08T04:30:28.217Z,14.43
2017-09-08T04:32:58.154Z,13.87
2017-09-08T04:35:28.436Z,14.60
2017-09-08T04:37:58.340Z,15.73
2017-09-08T04:40:28.522Z,13.70
2017-09-08T04:42:58.440Z,15.57
2017-09-08T04:45:28.822Z,16.17
2017-09-08T04:47:58.774Z,15.20
2017-09-08T04:50:29.136Z,14.67
2017-09-08T04:52:59.101Z,15.47
2017-09-08T04:55:29.285Z,15.23
2017-09-08T04:57:59.211Z,15.43
2017-09-08T05:00:29.411Z,15.10
2017-09-08T05:02:59.307Z,14.17
2017-09-08T05:05:29.629Z,16.20
2017-09-08T05:07:59.532Z,14.17
2017-09-08T05:10:29.869Z,12.87
2017-09-08T05:12:59.746Z,14.90
2017-09-08T05:15:30.037Z,15.13
2017-09-08T05:17:59.910Z,13.37
2017-09-08T05:20:30.151Z,16.20
2017-09-08T05:23:00.060Z,14.87
2017-09-08T05:25:29.975Z,13.77
2017-09-08T05:27:59.929Z,14.60
2017-09-08T05:30:29.860Z,14.87
2017-09-08T05:33:00.149Z,15.37
2017-09-08T05:35:30.052Z,15.70
2017-09-08T05:38:00.018Z,16.37
2017-09-08T05:40:30.084Z,13.47
2017-09-08T05:42:59.996Z,13.50
2017-09-08T05:45:30.221Z,13.67
2017-09-08T05:48:00.132Z,14.83
2017-09-08T05:50:30.457Z,15.70
2017-09-08T05:53:00.388Z,14.20
2017-09-08T05:55:30.700Z,13.90
2017-09-08T05:58:00.574Z,14.43
2017-09-08T06:00:31.068Z,14.63
2017-09-08T06:03:00.950Z,15.70
2017-09-08T06:05:31.262Z,16.90
2017-09-08T06:08:01.160Z,14.90
2017-09-08T06:10:31.381Z,14.20
2017-09-08T06:13:01.302Z,13.40
2017-09-08T06:15:31.541Z,13.67
2017-09-08T06:18:01.416Z,14.77
2017-09-08T06:20:31.856Z,15.20
2017-09-08T06:23:01.757Z,13.37
2017-09-08T06:25:31.996Z,13.83
2017-09-08T06:28:01.894Z,15.50
2017-09-08T06:30:32.274Z,15.73
2017-09-08T06:33:02.163Z,14.10
2017-09-08T06:35:32.498Z,16.10
2017-09-08T06:38:02.469Z,16.30
2017-09-08T06:40:32.720Z,16.33
2017-09-08T06:43:02.603Z,14.77
2017-09-08T06:45:38.359Z,15.00
2017-09-08T06:48:08.226Z,15.80
2017-09-08T06:50:38.510Z,14.27
2017-09-08T06:53:08.482Z,15.30
2017-09-08T06:55:39.602Z,14.23
2017-09-08T06:58:09.500Z,15.20
2017-09-08T07:00:39.797Z,15.17
2017-09-08T07:03:09.694Z,14.40
2017-09-08T07:05:39.930Z,14.63
2017-09-08T07:08:09.864Z,15.50
2017-09-08T07:10:40.239Z,13.97
2017-09-08T07:13:10.186Z,15.30
2017-09-08T07:15:40.532Z,13.70
2017-09-08T07:18:10.521Z,13.70
2017-09-08T07:20:40.841Z,13.10
2017-09-08T07:23:10.728Z,14.63
2017-09-08T07:25:41.048Z,14.47
2017-09-08T07:28:10.944Z,14.73
2017-09-08T07:30:41.230Z,13.40
2017-09-08T07:33:12.136Z,15.27
2017-09-08T07:35:42.394Z,11.90
2017-09-08T07:38:12.287Z,12.60
2017-09-08T07:40:42.850Z,11.93
2017-09-08T07:43:12.762Z,14.47
2017-09-08T07:45:43.013Z,12.67
2017-09-08T07:48:13.042Z,11.67
2017-09-08T07:50:43.410Z,10.13
2017-09-08T07:53:13.324Z,11.50
2017-09-08T07:55:43.587Z,11.20
2017-09-08T07:58:13.466Z,10.73
2017-09-08T08:00:43.685Z,10.17
2017-09-08T08:03:13.648Z,10.73
2017-09-08T08:05:43.838Z,11.13
2017-09-08T08:08:13.754Z,11.67
2017-09-08T08:10:44.048Z,10.33
2017-09-08T08:13:13.970Z,11.67
2017-09-08T08:15:44.235Z,10.60
2017-09-08T08:18:14.120Z,10.40
2017-09-08T08:20:44.044Z,9.50
2017-09-08T08:23:13.939Z,10.77
2017-09-08T08:25:43.800Z,10.50
2017-09-08T08:28:14.292Z,10.70
2017-09-08T08:30:44.186Z,10.30
2017-09-08T08:33:14.482Z,10.87
2017-09-08T08:35:44.353Z,11.33
2017-09-08T08:38:14.572Z,11.60
2017-09-08T08:40:44.439Z,11.33
2017-09-08T08:43:14.753Z,10.93
2017-09-08T08:45:44.627Z,12.37
2017-09-08T08:48:16.007Z,11.50
2017-09-08T08:50:45.926Z,11.60
2017-09-08T08:53:16.413Z,12.40
2017-09-08T08:55:46.430Z,11.80
2017-09-08T08:58:16.805Z,11.43
2017-09-08T09:00:46.713Z,9.87
2017-09-08T09:03:16.946Z,10.03
2017-09-08T09:05:46.807Z,9.77
2017-09-08T09:08:17.117Z,10.60
2017-09-08T09:10:47.045Z,11.60
2017-09-08T09:13:17.440Z,9.67
2017-09-08T09:15:47.406Z,9.90
2017-09-08T09:18:17.649Z,9.67
2017-09-08T09:20:47.527Z,9.17
2017-09-08T09:23:17.787Z,10.07
2017-09-08T09:25:47.651Z,10.43
2017-09-08T09:28:17.933Z,9.57
2017-09-08T09:30:47.806Z,9.43
2017-09-08T09:33:18.051Z,10.53
2017-09-08T09:35:47.926Z,11.50
2017-09-08T09:38:18.187Z,8.70
2017-09-08T09:40:48.075Z,10.30
2017-09-08T09:43:18.437Z,10.30
2017-09-08T09:45:48.316Z,11.20
2017-09-08T09:48:18.653Z,11.70
2017-09-08T09:50:48.655Z,11.17
2017-09-08T09:53:18.904Z,10.00
2017-09-08T09:55:48.769Z,9.17
2017-09-08T09:58:18.981Z,9.80
2017-09-08T10:00:48.881Z,9.30
2017-09-08T10:03:19.164Z,9.60
2017-09-08T10:05:49.059Z,8.67
2017-09-08T10:08:19.105Z,7.90
2017-09-08T10:10:48.981Z,10.07
2017-09-08T10:13:18.937Z,9.40
2017-09-08T10:15:49.392Z,8.37
2017-09-08T10:18:19.297Z,8.33
2017-09-08T10:20:49.609Z,9.30
2017-09-08T10:23:20.246Z,8.80
2017-09-08T10:25:50.559Z,9.13
2017-09-08T10:28:20.521Z,8.10
2017-09-08T10:30:50.801Z,8.30
2017-09-08T10:33:20.853Z,8.87
2017-09-08T10:35:51.236Z,7.40
2017-09-08T10:38:21.111Z,7.40
2017-09-08T10:40:51.037Z,6.60
2017-09-08T10:43:20.920Z,7.80
2017-09-08T10:45:50.802Z,7.20
2017-09-08T10:48:21.228Z,8.27
2017-09-08T10:50:51.108Z,8.43
2017-09-08T10:53:21.474Z,6.93
2017-09-08T10:55:51.339Z,7.30
2017-09-08T10:58:21.684Z,7.00
2017-09-08T11:00:51.766Z,6.00
2017-09-08T11:03:22.020Z,7.47
2017-09-08T11:05:51.927Z,8.90
2017-09-08T11:08:22.177Z,10.83
2017-09-08T11:10:52.067Z,8.63
2017-09-08T11:13:21.955Z,7.47
2017-09-08T11:15:51.823Z,8.13
2017-09-08T11:18:21.771Z,8.13
2017-09-08T11:20:52.039Z,8.17
2017-09-08T11:23:21.974Z,8.50
2017-09-08T11:25:52.278Z,8.40
2017-09-08T11:28:22.174Z,8.20
2017-09-08T11:30:52.618Z,8.30
2017-09-08T11:33:28.264Z,8.17
2017-09-08T11:36:04.168Z,8.53
2017-09-08T11:38:34.123Z,9.20
2017-09-08T11:41:04.044Z,8.63
2017-09-08T11:43:33.964Z,8.67
2017-09-08T11:46:03.873Z,9.17
2017-09-08T11:48:34.187Z,9.10
2017-09-08T11:51:04.108Z,9.70
2017-09-08T11:53:34.050Z,8.70
2017-09-08T11:56:03.985Z,9.90
2017-09-08T11:58:33.835Z,9.43
2017-09-08T12:01:04.298Z,9.73
2017-09-08T12:03:34.768Z,9.30
2017-09-08T12:06:05.249Z,9.37
2017-09-08T12:08:35.147Z,8.73
2017-09-08T12:11:05.450Z,6.77
2017-09-08T12:13:35.343Z,8.27
2017-09-08T12:16:05.595Z,7.90
2017-09-08T12:18:35.499Z,8.70
2017-09-08T12:21:05.834Z,8.47
2017-09-08T12:23:35.746Z,7.83
2017-09-08T12:26:06.167Z,6.27
2017-09-08T12:28:36.083Z,7.20
2017-09-08T12:31:06.347Z,7.47
2017-09-08T12:33:37.266Z,6.87
2017-09-08T12:36:07.577Z,6.73
2017-09-08T12:38:37.518Z,7.40
2017-09-08T12:41:08.479Z,7.57
2017-09-08T12:43:38.378Z,7.33
2017-09-08T12:46:08.869Z,7.80
2017-09-08T12:48:38.785Z,6.63
2017-09-08T12:51:09.015Z,5.67
2017-09-08T12:53:38.924Z,5.93
2017-09-08T12:56:09.260Z,8.57
2017-09-08T12:58:39.142Z,6.17
2017-09-08T13:01:09.531Z,6.70
2017-09-08T13:03:39.431Z,6.60
2017-09-08T13:06:09.916Z,6.67
2017-09-08T13:08:40.678Z,6.67
2017-09-08T13:11:10.958Z,7.60
2017-09-08T13:13:40.979Z,7.00
2017-09-08T13:16:11.367Z,7.53
2017-09-08T13:18:41.281Z,6.67
2017-09-08T13:21:11.531Z,7.67
2017-09-08T13:23:41.448Z,6.57
2017-09-08T13:26:12.687Z,7.47
2017-09-08T13:28:42.596Z,6.33
2017-09-08T13:31:12.938Z,6.70
2017-09-08T13:33:42.994Z,7.00
2017-09-08T13:36:13.224Z,5.80
2017-09-08T13:38:43.153Z,6.00
2017-09-08T13:41:13.527Z,6.60
2017-09-08T13:43:43.430Z,5.70
2017-09-08T13:46:13.753Z,6.10
2017-09-08T13:48:43.670Z,5.70
2017-09-08T13:51:13.979Z,5.90
2017-09-08T13:53:43.884Z,5.10
2017-09-08T13:56:14.293Z,4.60
2017-09-08T13:58:44.189Z,5.00
2017-09-08T14:01:14.567Z,4.47
2017-09-08T14:03:44.451Z,4.37
2017-09-08T14:06:14.683Z,4.53
2017-09-08T14:08:44.664Z,3.70
2017-09-08T14:11:14.957Z,4.30
2017-09-08T14:13:44.934Z,3.80
2017-09-08T14:16:15.351Z,4.40
2017-09-08T14:18:45.291Z,3.50
2017-09-08T14:21:15.670Z,4.40
2017-09-08T14:23:45.593Z,3.87
2017-09-08T14:26:15.942Z,3.70
2017-09-08T14:28:45.843Z,4.33
2017-09-08T14:31:16.112Z,4.30
2017-09-08T14:33:46.025Z,4.20
2017-09-08T14:36:16.282Z,4.30
2017-09-08T14:38:46.268Z,4.40
2017-09-08T14:41:16.553Z,4.60
2017-09-08T14:43:46.459Z,5.13
2017-09-08T14:46:16.843Z,4.67
2017-09-08T14:48:46.746Z,3.93
2017-09-08T14:51:17.032Z,4.60
2017-09-08T14:53:46.936Z,4.00
2017-09-08T14:56:17.258Z,4.83
2017-09-08T14:58:47.154Z,4.50
2017-09-08T15:01:17.504Z,5.37
2017-09-08T15:03:47.370Z,5.33
2017-09-08T15:06:17.726Z,5.47
2017-09-08T15:08:47.640Z,5.40
2017-09-08T15:11:17.830Z,5.10
2017-09-08T15:13:47.709Z,6.23
2017-09-08T15:16:17.992Z,6.30
2017-09-08T15:18:47.863Z,6.13
2017-09-08T15:21:18.065Z,7.00
2017-09-08T15:23:47.941Z,6.80
2017-09-08T15:26:17.975Z,7.97
2017-09-08T15:28:47.958Z,7.50
2017-09-08T15:31:17.846Z,7.20
2017-09-08T15:33:48.119Z,7.10
2017-09-08T15:36:17.976Z,7.07
2017-09-08T15:38:47.948Z,7.37
2017-09-08T15:41:17.840Z,7.13
2017-09-08T15:43:47.714Z,6.60
2017-09-08T15:46:18.743Z,6.30
2017-09-08T15:48:48.674Z,6.60
2017-09-08T15:51:19.072Z,6.27
2017-09-08T15:53:48.955Z,5.80
2017-09-08T15:56:20.564Z,6.10
2017-09-08T15:58:50.446Z,6.00
2017-09-08T16:01:20.746Z,5.77
2017-09-08T16:03:50.623Z,6.50
2017-09-08T16:06:20.913Z,5.43
2017-09-08T16:08:50.851Z,5.70
2017-09-08T16:11:21.064Z,6.97
2017-09-08T16:13:50.965Z,5.73
2017-09-08T16:16:20.865Z,5.60
2017-09-08T16:18:50.808Z,5.17
2017-09-08T16:21:20.695Z,5.60
2017-09-08T16:23:50.612Z,5.23
2017-09-08T16:26:20.503Z,5.67
2017-09-08T16:28:50.384Z,5.83
2017-09-08T16:31:20.287Z,5.30
2017-09-08T16:33:50.620Z,5.17
2017-09-08T16:36:20.528Z,4.97
2017-09-08T16:38:50.800Z,4.87
2017-09-08T16:41:20.663Z,5.13
2017-09-08T16:43:50.939Z,5.10
2017-09-08T16:46:20.852Z,4.50
2017-09-08T16:48:51.061Z,6.30
2017-09-08T16:51:20.920Z,6.47
2017-09-08T16:53:50.952Z,5.67
2017-09-08T16:56:20.825Z,7.37
2017-09-08T16:58:50.711Z,5.83
2017-09-08T17:01:20.934Z,7.13
2017-09-08T17:03:50.800Z,7.07
2017-09-08T17:06:22.014Z,7.30
2017-09-08T17:08:51.915Z,7.40
2017-09-08T17:11:23.053Z,7.10
2017-09-08T17:13:54.047Z,6.70
2017-09-08T17:16:24.510Z,6.40
2017-09-08T17:18:54.430Z,6.20
2017-09-08T17:21:24.747Z,28.60
2017-09-08T17:23:54.660Z,6.03
2017-09-08T17:26:24.879Z,6.23
2017-09-08T17:28:54.797Z,6.83
2017-09-08T17:31:25.018Z,5.43
2017-09-08T17:33:54.956Z,6.33
2017-09-08T17:36:25.300Z,6.53
2017-09-08T17:38:55.267Z,6.87
2017-09-08T17:41:25.605Z,6.43
2017-09-08T17:43:55.638Z,7.53
2017-09-08T17:46:26.351Z,7.37
2017-09-08T17:48:56.313Z,6.70
2017-09-08T17:51:26.689Z,7.00
2017-09-08T17:53:57.526Z,7.77
2017-09-08T17:56:27.934Z,7.60
2017-09-08T17:58:57.992Z,7.97
2017-09-08T18:01:28.327Z,8.50
2017-09-08T18:03:58.405Z,8.20
2017-09-08T18:06:28.656Z,7.73
2017-09-08T18:08:58.532Z,9.10
2017-09-08T18:11:29.391Z,8.53
2017-09-08T18:13:59.313Z,8.37
2017-09-08T18:16:29.603Z,8.50
2017-09-08T18:18:59.679Z,8.50
2017-09-08T18:21:30.146Z,9.03
2017-09-08T18:24:00.037Z,10.00
2017-09-08T18:26:30.466Z,9.07
2017-09-08T18:29:00.471Z,9.67
2017-09-08T18:31:30.881Z,9.53
2017-09-08T18:34:00.835Z,8.80
2017-09-08T18:36:31.450Z,12.33
2017-09-08T18:39:01.427Z,9.77
2017-09-08T18:41:31.866Z,8.60
2017-09-08T18:44:01.844Z,9.40
2017-09-08T18:46:32.151Z,9.40
2017-09-08T18:49:02.176Z,10.27
2017-09-08T18:51:32.665Z,11.07
2017-09-08T18:54:02.708Z,9.50
2017-09-08T18:56:33.171Z,10.50
2017-09-08T18:59:03.148Z,9.53
2017-09-08T19:01:33.538Z,10.27
2017-09-08T19:04:03.501Z,12.60
2017-09-08T19:06:33.912Z,9.57
2017-09-08T19:09:03.963Z,9.50
2017-09-08T19:11:34.035Z,9.10
2017-09-08T19:14:03.959Z,8.83
2017-09-08T19:16:34.527Z,8.70
2017-09-08T19:19:04.665Z,9.70
2017-09-08T19:21:35.157Z,8.43
2017-09-08T19:24:05.200Z,7.97
2017-09-08T19:26:35.733Z,7.67
2017-09-08T19:29:08.763Z,8.03
2017-09-08T19:31:39.223Z,7.23
2017-09-08T19:34:09.364Z,7.47
2017-09-08T19:36:39.767Z,6.60
2017-09-08T19:39:10.812Z,6.60
2017-09-08T19:41:41.607Z,7.37
2017-09-08T19:44:11.622Z,6.90
2017-09-08T19:46:42.133Z,7.13
2017-09-08T19:49:12.135Z,6.57
2017-09-08T19:51:42.588Z,6.73
2017-09-08T19:54:12.692Z,7.17
2017-09-08T19:56:43.143Z,7.00
2017-09-08T19:59:13.165Z,7.40
2017-09-08T20:01:43.666Z,6.70
2017-09-08T20:04:13.789Z,7.17
2017-09-08T20:06:44.149Z,6.93
2017-09-08T20:09:14.304Z,6.70
2017-09-08T20:11:44.749Z,7.23
2017-09-08T20:14:14.725Z,6.20
2017-09-08T20:29:39.711Z,4.70
2017-09-08T20:32:10.230Z,6.27
2017-09-08T20:34:40.226Z,6.20
2017-09-08T20:37:10.193Z,5.90
2017-09-08T20:39:40.095Z,6.10
2017-09-08T20:42:10.503Z,5.13
2017-09-08T20:44:40.426Z,5.77
2017-09-08T20:47:10.740Z,6.80
2017-09-08T20:49:40.659Z,6.47
2017-09-08T20:52:10.916Z,5.73
2017-09-08T20:54:41.124Z,6.33
2017-09-08T20:57:11.447Z,6.33
2017-09-08T20:59:42.758Z,6.33
2017-09-08T21:02:13.331Z,5.67
2017-09-08T21:04:43.304Z,5.70
2017-09-08T21:07:14.043Z,6.00
2017-09-08T21:09:44.903Z,4.93
2017-09-08T21:12:15.297Z,4.87
2017-09-08T21:14:45.223Z,4.83
2017-09-08T21:17:15.513Z,5.23
2017-09-08T21:19:45.458Z,4.63
2017-09-08T21:22:15.757Z,3.70
2017-09-08T21:24:46.236Z,4.20
2017-09-08T21:27:16.590Z,4.13
2017-09-08T21:29:47.030Z,5.03
2017-09-08T21:32:17.322Z,3.97
2017-09-08T21:34:47.290Z,4.60
2017-09-08T21:37:17.549Z,4.80
2017-09-08T21:39:47.498Z,4.23
2017-09-08T21:42:18.084Z,4.90
2017-09-08T21:44:48.010Z,4.50
2017-09-08T21:47:18.234Z,4.07
2017-09-08T21:49:48.137Z,4.67
2017-09-08T21:52:18.083Z,4.50
2017-09-08T21:54:48.149Z,3.90
2017-09-08T21:57:18.334Z,4.30
2017-09-08T21:59:48.839Z,4.20
2017-09-08T22:02:18.711Z,3.90
2017-09-08T22:04:49.056Z,4.57
2017-09-08T22:07:19.126Z,4.33
2017-09-08T22:09:49.483Z,3.83
2017-09-08T22:12:19.479Z,3.63
2017-09-08T22:14:49.711Z,4.00
2017-09-08T22:17:19.724Z,3.60
2017-09-08T22:19:50.061Z,3.30
2017-09-08T22:22:19.953Z,3.73
2017-09-08T22:24:50.242Z,3.93
2017-09-08T22:27:20.136Z,3.70
2017-09-08T22:29:50.077Z,4.17
2017-09-08T22:32:20.050Z,4.40
2017-09-08T22:34:49.936Z,4.17
2017-09-08T22:37:20.226Z,4.80
2017-09-08T22:39:50.121Z,4.40
2017-09-08T22:42:20.015Z,5.00
2017-09-08T22:44:49.918Z,4.03
2017-09-08T22:47:19.867Z,4.67
2017-09-08T22:49:50.178Z,4.20
2017-09-08T22:52:20.065Z,4.80
2017-09-08T22:54:49.935Z,4.60
2017-09-08T22:57:19.886Z,4.83
2017-09-08T22:59:50.049Z,4.57
2017-09-08T23:02:20.283Z,4.60
2017-09-08T23:04:50.178Z,5.27
2017-09-08T23:07:20.551Z,4.83
2017-09-08T23:09:50.412Z,4.40
2017-09-08T23:12:20.654Z,4.50
2017-09-08T23:14:50.521Z,4.60
2017-09-08T23:17:20.925Z,5.20
2017-09-08T23:19:50.829Z,4.33
2017-09-08T23:22:21.126Z,4.33
2017-09-08T23:24:51.015Z,4.53
2017-09-08T23:27:21.243Z,5.13
2017-09-08T23:29:51.089Z,3.90
2017-09-08T23:32:20.986Z,3.83
2017-09-08T23:34:50.867Z,3.80
2017-09-08T23:37:20.729Z,3.90
2017-09-08T23:39:50.930Z,3.80
2017-09-08T23:42:20.863Z,4.10
2017-09-08T23:44:51.174Z,4.93
2017-09-08T23:47:21.057Z,4.10
2017-09-08T23:49:50.949Z,3.53
2017-09-08T23:52:20.802Z,3.40
2017-09-08T23:54:50.691Z,3.70
2017-09-08T23:57:21.044Z,4.00
2017-09-08T23:59:50.890Z,4.03
